sensor_id;sensor_type;location;lat;lon;timestamp;temperature;humidity
15997;DHT22;8103;51.340;12.326;2023-01-19T00:00:53;-2.70;99.90
15997;DHT22;8103;51.340;12.326;2023-01-19T00:03:20;-2.70;99.90
15997;DHT22;8103;51.340;12.326;2023-01-19T00:05:47;-2.70;99.90
15997;DHT22;8103;51.340;12.326;2023-01-19T00:08:14;-2.60;99.90
15997;DHT22;8103;51.340;12.326;2023-01-19T00:10:46;-2.60;99.90
15997;DHT22;8103;51.340;12.326;2023-01-19T00:13:16;-2.60;99.90
15997;DHT22;8103;51.340;12.326;2023-01-19T00:15:44;-2.60;99.90
15997;DHT22;8103;51.340;12.326;2023-01-19T00:18:11;-2.50;99.90
15997;DHT22;8103;51.340;12.326;2023-01-19T00:20:38;-2.50;99.90
15997;DHT22;8103;51.340;12.326;2023-01-19T00:23:08;-2.50;99.90
15997;DHT22;8103;51.340;12.326;2023-01-19T00:25:36;-2.50;99.90
15997;DHT22;8103;51.340;12.326;2023-01-19T00:28:13;-2.50;99.90
15997;DHT22;8103;51.340;12.326;2023-01-19T00:30:42;-2.50;99.90
15997;DHT22;8103;51.340;12.326;2023-01-19T00:33:11;-2.50;99.90
15997;DHT22;8103;51.340;12.326;2023-01-19T00:35:41;-2.50;99.90
15997;DHT22;8103;51.340;12.326;2023-01-19T00:38:09;-2.50;99.90
15997;DHT22;8103;51.340;12.326;2023-01-19T00:40:37;-2.50;99.90
15997;DHT22;8103;51.340;12.326;2023-01-19T00:43:04;-2.40;99.90
15997;DHT22;8103;51.340;12.326;2023-01-19T00:45:33;-2.40;99.90
15997;DHT22;8103;51.340;12.326;2023-01-19T00:48:00;-2.40;99.90
15997;DHT22;8103;51.340;12.326;2023-01-19T00:50:29;-2.40;99.90
15997;DHT22;8103;51.340;12.326;2023-01-19T00:52:58;-2.40;99.90
15997;DHT22;8103;51.340;12.326;2023-01-19T00:55:27;-2.40;99.90
15997;DHT22;8103;51.340;12.326;2023-01-19T00:57:55;-2.40;99.90
15997;DHT22;8103;51.340;12.326;2023-01-19T01:00:23;-2.40;99.90
15997;DHT22;8103;51.340;12.326;2023-01-19T01:02:52;-2.50;99.90
15997;DHT22;8103;51.340;12.326;2023-01-19T01:05:22;-2.50;99.90
15997;DHT22;8103;51.340;12.326;2023-01-19T01:07:49;-2.60;99.90
15997;DHT22;8103;51.340;12.326;2023-01-19T01:10:20;-2.70;99.90
15997;DHT22;8103;51.340;12.326;2023-01-19T01:12:52;-2.70;99.90
15997;DHT22;8103;51.340;12.326;2023-01-19T01:15:21;-2.80;99.90
15997;DHT22;8103;51.340;12.326;2023-01-19T01:17:48;-2.80;99.90
15997;DHT22;8103;51.340;12.326;2023-01-19T01:20:24;-2.90;99.90
15997;DHT22;8103;51.340;12.326;2023-01-19T01:22:54;-2.90;99.90
15997;DHT22;8103;51.340;12.326;2023-01-19T01:25:23;-2.90;99.90
15997;DHT22;8103;51.340;12.326;2023-01-19T01:27:52;-3.00;99.90
15997;DHT22;8103;51.340;12.326;2023-01-19T01:30:20;-3.00;99.90
15997;DHT22;8103;51.340;12.326;2023-01-19T01:32:48;-3.00;99.90
15997;DHT22;8103;51.340;12.326;2023-01-19T01:35:15;-3.00;99.90
15997;DHT22;8103;51.340;12.326;2023-01-19T01:37:42;-2.90;99.90
15997;DHT22;8103;51.340;12.326;2023-01-19T01:40:12;-2.90;99.90
15997;DHT22;8103;51.340;12.326;2023-01-19T01:42:41;-2.90;99.90
15997;DHT22;8103;51.340;12.326;2023-01-19T01:48:12;-2.90;99.90
15997;DHT22;8103;51.340;12.326;2023-01-19T01:50:48;-2.90;99.90
15997;DHT22;8103;51.340;12.326;2023-01-19T01:53:39;-2.90;99.90
15997;DHT22;8103;51.340;12.326;2023-01-19T01:56:14;-2.90;99.90
15997;DHT22;8103;51.340;12.326;2023-01-19T01:58:47;-2.90;99.90
15997;DHT22;8103;51.340;12.326;2023-01-19T02:01:15;-2.90;99.90
15997;DHT22;8103;51.340;12.326;2023-01-19T02:04:00;-2.90;99.90
15997;DHT22;8103;51.340;12.326;2023-01-19T02:06:27;-3.00;99.90
15997;DHT22;8103;51.340;12.326;2023-01-19T02:08:58;-3.00;99.90
15997;DHT22;8103;51.340;12.326;2023-01-19T02:11:48;-3.00;99.90
15997;DHT22;8103;51.340;12.326;2023-01-19T02:14:35;-3.00;99.90
15997;DHT22;8103;51.340;12.326;2023-01-19T02:17:05;-3.00;99.90
15997;DHT22;8103;51.340;12.326;2023-01-19T02:19:41;-3.10;99.90
15997;DHT22;8103;51.340;12.326;2023-01-19T02:22:16;-3.10;99.90
15997;DHT22;8103;51.340;12.326;2023-01-19T02:24:50;-3.10;99.90
15997;DHT22;8103;51.340;12.326;2023-01-19T02:27:17;-3.10;99.90
15997;DHT22;8103;51.340;12.326;2023-01-19T02:29:45;-3.10;99.90
15997;DHT22;8103;51.340;12.326;2023-01-19T02:32:12;-3.10;99.90
15997;DHT22;8103;51.340;12.326;2023-01-19T02:34:39;-3.10;99.90
15997;DHT22;8103;51.340;12.326;2023-01-19T02:37:10;-3.10;99.90
15997;DHT22;8103;51.340;12.326;2023-01-19T02:39:49;-3.10;99.90
15997;DHT22;8103;51.340;12.326;2023-01-19T02:42:26;-3.10;99.90
15997;DHT22;8103;51.340;12.326;2023-01-19T02:44:54;-3.10;99.90
15997;DHT22;8103;51.340;12.326;2023-01-19T02:47:23;-3.20;99.90
15997;DHT22;8103;51.340;12.326;2023-01-19T02:49:57;-3.20;99.90
15997;DHT22;8103;51.340;12.326;2023-01-19T02:52:25;-3.20;99.90
15997;DHT22;8103;51.340;12.326;2023-01-19T02:55:11;-3.20;99.90
15997;DHT22;8103;51.340;12.326;2023-01-19T02:57:55;-3.20;99.90
15997;DHT22;8103;51.340;12.326;2023-01-19T03:03:57;-3.20;99.90
15997;DHT22;8103;51.340;12.326;2023-01-19T03:06:58;-3.20;99.90
15997;DHT22;8103;51.340;12.326;2023-01-19T03:09:48;-3.20;99.90
15997;DHT22;8103;51.340;12.326;2023-01-19T03:12:53;-3.20;99.90
15997;DHT22;8103;51.340;12.326;2023-01-19T03:15:56;-3.20;99.90
15997;DHT22;8103;51.340;12.326;2023-01-19T03:18:33;-3.10;99.90
15997;DHT22;8103;51.340;12.326;2023-01-19T03:21:05;-3.10;99.90
15997;DHT22;8103;51.340;12.326;2023-01-19T03:23:35;-3.10;99.90
15997;DHT22;8103;51.340;12.326;2023-01-19T03:26:08;-3.10;99.90
15997;DHT22;8103;51.340;12.326;2023-01-19T03:28:41;-3.10;99.90
15997;DHT22;8103;51.340;12.326;2023-01-19T03:31:23;-3.10;99.90
15997;DHT22;8103;51.340;12.326;2023-01-19T03:34:04;-3.10;99.90
15997;DHT22;8103;51.340;12.326;2023-01-19T03:36:36;-3.10;99.90
15997;DHT22;8103;51.340;12.326;2023-01-19T03:39:09;-3.20;99.90
15997;DHT22;8103;51.340;12.326;2023-01-19T03:41:41;-3.20;99.90
15997;DHT22;8103;51.340;12.326;2023-01-19T03:44:10;-3.20;99.90
15997;DHT22;8103;51.340;12.326;2023-01-19T03:46:38;-3.20;99.90
15997;DHT22;8103;51.340;12.326;2023-01-19T03:49:06;-3.20;99.90
15997;DHT22;8103;51.340;12.326;2023-01-19T03:51:36;-3.20;99.90
15997;DHT22;8103;51.340;12.326;2023-01-19T03:54:05;-3.30;99.90
15997;DHT22;8103;51.340;12.326;2023-01-19T03:56:33;-3.30;99.90
15997;DHT22;8103;51.340;12.326;2023-01-19T03:59:00;-3.30;99.90
15997;DHT22;8103;51.340;12.326;2023-01-19T04:01:27;-3.30;99.90
15997;DHT22;8103;51.340;12.326;2023-01-19T04:03:54;-3.30;99.90
15997;DHT22;8103;51.340;12.326;2023-01-19T04:06:21;-3.30;99.90
15997;DHT22;8103;51.340;12.326;2023-01-19T04:08:49;-3.30;99.90
15997;DHT22;8103;51.340;12.326;2023-01-19T04:11:17;-3.30;99.90
15997;DHT22;8103;51.340;12.326;2023-01-19T04:13:44;-3.30;99.90
15997;DHT22;8103;51.340;12.326;2023-01-19T04:16:11;-3.30;99.90
15997;DHT22;8103;51.340;12.326;2023-01-19T04:18:39;-3.30;99.90
15997;DHT22;8103;51.340;12.326;2023-01-19T04:21:07;-3.50;99.90
15997;DHT22;8103;51.340;12.326;2023-01-19T04:23:34;-3.40;99.90
15997;DHT22;8103;51.340;12.326;2023-01-19T04:26:06;-3.40;99.90
15997;DHT22;8103;51.340;12.326;2023-01-19T04:28:35;-3.40;99.90
15997;DHT22;8103;51.340;12.326;2023-01-19T04:31:03;-3.40;99.90
15997;DHT22;8103;51.340;12.326;2023-01-19T04:33:31;-3.40;99.90
15997;DHT22;8103;51.340;12.326;2023-01-19T04:35:58;-3.40;99.90
15997;DHT22;8103;51.340;12.326;2023-01-19T04:38:26;-3.40;99.90
15997;DHT22;8103;51.340;12.326;2023-01-19T04:40:53;-3.40;99.90
15997;DHT22;8103;51.340;12.326;2023-01-19T04:43:21;-3.40;99.90
15997;DHT22;8103;51.340;12.326;2023-01-19T04:45:49;-3.40;99.90
15997;DHT22;8103;51.340;12.326;2023-01-19T04:48:16;-3.40;99.90
15997;DHT22;8103;51.340;12.326;2023-01-19T04:50:44;-3.40;99.90
15997;DHT22;8103;51.340;12.326;2023-01-19T04:53:11;-3.40;99.90
15997;DHT22;8103;51.340;12.326;2023-01-19T04:55:39;-3.40;99.90
15997;DHT22;8103;51.340;12.326;2023-01-19T04:58:06;-3.40;99.90
15997;DHT22;8103;51.340;12.326;2023-01-19T05:00:33;-3.50;99.90
15997;DHT22;8103;51.340;12.326;2023-01-19T05:03:00;-3.50;99.90
15997;DHT22;8103;51.340;12.326;2023-01-19T05:05:28;-3.50;99.90
15997;DHT22;8103;51.340;12.326;2023-01-19T05:07:55;-3.50;99.90
15997;DHT22;8103;51.340;12.326;2023-01-19T05:10:23;-3.50;99.90
15997;DHT22;8103;51.340;12.326;2023-01-19T05:12:50;-3.50;99.90
15997;DHT22;8103;51.340;12.326;2023-01-19T05:15:17;-3.40;99.90
15997;DHT22;8103;51.340;12.326;2023-01-19T05:17:44;-3.40;99.90
15997;DHT22;8103;51.340;12.326;2023-01-19T05:20:12;-3.40;99.90
15997;DHT22;8103;51.340;12.326;2023-01-19T05:22:42;-3.40;99.90
15997;DHT22;8103;51.340;12.326;2023-01-19T05:25:15;-3.40;99.90
15997;DHT22;8103;51.340;12.326;2023-01-19T05:27:43;-3.40;99.90
15997;DHT22;8103;51.340;12.326;2023-01-19T05:30:12;-3.40;99.90
15997;DHT22;8103;51.340;12.326;2023-01-19T05:32:39;-3.40;99.90
15997;DHT22;8103;51.340;12.326;2023-01-19T05:35:07;-3.40;99.90
15997;DHT22;8103;51.340;12.326;2023-01-19T05:37:35;-3.40;99.90
15997;DHT22;8103;51.340;12.326;2023-01-19T05:40:02;-3.40;99.90
15997;DHT22;8103;51.340;12.326;2023-01-19T05:42:29;-3.40;99.90
15997;DHT22;8103;51.340;12.326;2023-01-19T05:44:58;-3.40;99.90
15997;DHT22;8103;51.340;12.326;2023-01-19T05:47:25;-3.40;99.90
15997;DHT22;8103;51.340;12.326;2023-01-19T05:49:51;-3.40;99.90
15997;DHT22;8103;51.340;12.326;2023-01-19T05:52:18;-3.40;99.90
15997;DHT22;8103;51.340;12.326;2023-01-19T05:54:45;-3.40;99.90
15997;DHT22;8103;51.340;12.326;2023-01-19T05:57:13;-3.30;99.90
15997;DHT22;8103;51.340;12.326;2023-01-19T05:59:42;-3.30;99.90
15997;DHT22;8103;51.340;12.326;2023-01-19T06:02:09;-3.30;99.90
15997;DHT22;8103;51.340;12.326;2023-01-19T06:04:36;-3.30;99.90
15997;DHT22;8103;51.340;12.326;2023-01-19T06:07:04;-3.30;99.90
15997;DHT22;8103;51.340;12.326;2023-01-19T06:09:32;-3.30;99.90
15997;DHT22;8103;51.340;12.326;2023-01-19T06:11:59;-3.30;99.90
15997;DHT22;8103;51.340;12.326;2023-01-19T06:14:26;-3.30;99.90
15997;DHT22;8103;51.340;12.326;2023-01-19T06:16:53;-3.20;99.90
15997;DHT22;8103;51.340;12.326;2023-01-19T06:19:21;-3.20;99.90
15997;DHT22;8103;51.340;12.326;2023-01-19T06:21:48;-3.20;99.90
15997;DHT22;8103;51.340;12.326;2023-01-19T06:24:17;-3.20;99.90
15997;DHT22;8103;51.340;12.326;2023-01-19T06:26:45;-3.20;99.90
15997;DHT22;8103;51.340;12.326;2023-01-19T06:29:15;-3.30;99.90
15997;DHT22;8103;51.340;12.326;2023-01-19T06:31:42;-3.30;99.90
15997;DHT22;8103;51.340;12.326;2023-01-19T06:34:09;-3.30;99.90
15997;DHT22;8103;51.340;12.326;2023-01-19T06:36:36;-3.30;99.90
15997;DHT22;8103;51.340;12.326;2023-01-19T06:39:03;-3.30;99.90
15997;DHT22;8103;51.340;12.326;2023-01-19T06:41:32;-3.30;99.90
15997;DHT22;8103;51.340;12.326;2023-01-19T06:44:00;-3.40;99.90
15997;DHT22;8103;51.340;12.326;2023-01-19T06:46:27;-3.40;99.90
15997;DHT22;8103;51.340;12.326;2023-01-19T06:48:55;-3.30;99.90
15997;DHT22;8103;51.340;12.326;2023-01-19T06:51:22;-3.30;99.90
15997;DHT22;8103;51.340;12.326;2023-01-19T06:53:49;-3.30;99.90
15997;DHT22;8103;51.340;12.326;2023-01-19T06:56:16;-3.30;99.90
15997;DHT22;8103;51.340;12.326;2023-01-19T06:58:45;-3.20;99.90
15997;DHT22;8103;51.340;12.326;2023-01-19T07:01:13;-3.20;99.90
15997;DHT22;8103;51.340;12.326;2023-01-19T07:03:40;-3.20;99.90
15997;DHT22;8103;51.340;12.326;2023-01-19T07:06:07;-3.20;99.90
15997;DHT22;8103;51.340;12.326;2023-01-19T07:08:35;-3.20;99.90
15997;DHT22;8103;51.340;12.326;2023-01-19T07:11:05;-3.10;99.90
15997;DHT22;8103;51.340;12.326;2023-01-19T07:13:48;-3.10;99.90
15997;DHT22;8103;51.340;12.326;2023-01-19T07:16:17;-3.10;99.90
15997;DHT22;8103;51.340;12.326;2023-01-19T07:18:47;-3.10;99.90
15997;DHT22;8103;51.340;12.326;2023-01-19T07:21:14;-3.10;99.90
15997;DHT22;8103;51.340;12.326;2023-01-19T07:23:43;-3.10;99.90
15997;DHT22;8103;51.340;12.326;2023-01-19T07:26:13;-3.10;99.90
15997;DHT22;8103;51.340;12.326;2023-01-19T07:28:40;-3.10;99.90
15997;DHT22;8103;51.340;12.326;2023-01-19T07:31:07;-3.10;99.90
15997;DHT22;8103;51.340;12.326;2023-01-19T07:33:35;-3.10;99.90
15997;DHT22;8103;51.340;12.326;2023-01-19T07:36:02;-3.10;99.90
15997;DHT22;8103;51.340;12.326;2023-01-19T07:38:29;-3.00;99.90
15997;DHT22;8103;51.340;12.326;2023-01-19T07:41:02;-3.00;99.90
15997;DHT22;8103;51.340;12.326;2023-01-19T07:43:32;-3.00;99.90
15997;DHT22;8103;51.340;12.326;2023-01-19T07:46:01;-3.00;99.90
15997;DHT22;8103;51.340;12.326;2023-01-19T07:48:29;-3.00;99.90
15997;DHT22;8103;51.340;12.326;2023-01-19T07:51:00;-3.00;99.90
15997;DHT22;8103;51.340;12.326;2023-01-19T07:53:30;-3.00;99.90
15997;DHT22;8103;51.340;12.326;2023-01-19T07:55:58;-3.00;99.90
15997;DHT22;8103;51.340;12.326;2023-01-19T07:58:25;-2.90;99.90
15997;DHT22;8103;51.340;12.326;2023-01-19T08:00:52;-2.90;99.90
15997;DHT22;8103;51.340;12.326;2023-01-19T08:03:19;-2.80;99.90
15997;DHT22;8103;51.340;12.326;2023-01-19T08:05:50;-2.70;99.90
15997;DHT22;8103;51.340;12.326;2023-01-19T08:08:19;-2.70;99.90
15997;DHT22;8103;51.340;12.326;2023-01-19T08:10:50;-2.60;99.90
15997;DHT22;8103;51.340;12.326;2023-01-19T08:13:17;-2.50;99.90
15997;DHT22;8103;51.340;12.326;2023-01-19T08:15:46;-2.50;99.90
15997;DHT22;8103;51.340;12.326;2023-01-19T08:18:14;-2.50;99.90
15997;DHT22;8103;51.340;12.326;2023-01-19T08:20:43;-2.50;99.90
15997;DHT22;8103;51.340;12.326;2023-01-19T08:23:10;-2.50;99.90
15997;DHT22;8103;51.340;12.326;2023-01-19T08:25:41;-2.50;99.90
15997;DHT22;8103;51.340;12.326;2023-01-19T08:28:12;-2.40;99.90
15997;DHT22;8103;51.340;12.326;2023-01-19T08:30:40;-2.40;99.90
15997;DHT22;8103;51.340;12.326;2023-01-19T08:33:11;-2.40;99.90
15997;DHT22;8103;51.340;12.326;2023-01-19T08:35:45;-2.40;99.90
15997;DHT22;8103;51.340;12.326;2023-01-19T08:38:15;-2.30;99.90
15997;DHT22;8103;51.340;12.326;2023-01-19T08:40:43;-2.30;99.90
15997;DHT22;8103;51.340;12.326;2023-01-19T08:43:13;-2.20;99.90
15997;DHT22;8103;51.340;12.326;2023-01-19T08:45:45;-2.20;99.90
15997;DHT22;8103;51.340;12.326;2023-01-19T08:48:19;-2.10;99.90
15997;DHT22;8103;51.340;12.326;2023-01-19T08:50:51;-2.00;99.90
15997;DHT22;8103;51.340;12.326;2023-01-19T08:53:19;-1.90;99.90
15997;DHT22;8103;51.340;12.326;2023-01-19T08:55:52;-1.60;99.90
15997;DHT22;8103;51.340;12.326;2023-01-19T08:58:22;-0.90;99.90
15997;DHT22;8103;51.340;12.326;2023-01-19T09:00:49;0.00;99.90
15997;DHT22;8103;51.340;12.326;2023-01-19T09:03:18;0.70;99.90
15997;DHT22;8103;51.340;12.326;2023-01-19T09:05:47;1.40;99.90
15997;DHT22;8103;51.340;12.326;2023-01-19T09:08:15;2.10;99.90
15997;DHT22;8103;51.340;12.326;2023-01-19T09:10:47;2.60;99.90
15997;DHT22;8103;51.340;12.326;2023-01-19T09:13:19;3.00;98.60
15997;DHT22;8103;51.340;12.326;2023-01-19T09:15:46;3.30;97.30
15997;DHT22;8103;51.340;12.326;2023-01-19T09:18:15;3.70;96.20
15997;DHT22;8103;51.340;12.326;2023-01-19T09:20:45;4.00;95.40
15997;DHT22;8103;51.340;12.326;2023-01-19T09:23:16;4.30;94.30
15997;DHT22;8103;51.340;12.326;2023-01-19T09:25:46;4.50;93.20
15997;DHT22;8103;51.340;12.326;2023-01-19T09:28:15;4.60;92.90
15997;DHT22;8103;51.340;12.326;2023-01-19T09:30:43;4.90;92.30
15997;DHT22;8103;51.340;12.326;2023-01-19T09:33:13;5.30;91.20
15997;DHT22;8103;51.340;12.326;2023-01-19T09:35:44;5.70;90.60
15997;DHT22;8103;51.340;12.326;2023-01-19T09:38:13;6.00;87.90
15997;DHT22;8103;51.340;12.326;2023-01-19T09:40:48;6.10;86.10
15997;DHT22;8103;51.340;12.326;2023-01-19T09:43:30;6.30;85.40
15997;DHT22;8103;51.340;12.326;2023-01-19T09:46:36;6.70;84.10
15997;DHT22;8103;51.340;12.326;2023-01-19T09:49:19;7.20;80.30
15997;DHT22;8103;51.340;12.326;2023-01-19T09:51:56;7.20;78.80
15997;DHT22;8103;51.340;12.326;2023-01-19T09:54:45;7.40;78.20
15997;DHT22;8103;51.340;12.326;2023-01-19T09:57:21;7.70;76.10
15997;DHT22;8103;51.340;12.326;2023-01-19T09:59:50;7.70;75.90
15997;DHT22;8103;51.340;12.326;2023-01-19T10:02:35;7.90;74.80
15997;DHT22;8103;51.340;12.326;2023-01-19T10:05:20;8.30;72.90
15997;DHT22;8103;51.340;12.326;2023-01-19T10:08:11;7.80;71.60
15997;DHT22;8103;51.340;12.326;2023-01-19T10:10:51;6.90;76.00
15997;DHT22;8103;51.340;12.326;2023-01-19T10:16:18;6.70;77.60
15997;DHT22;8103;51.340;12.326;2023-01-19T10:19:20;7.10;77.00
15997;DHT22;8103;51.340;12.326;2023-01-19T10:21:56;8.40;73.50
15997;DHT22;8103;51.340;12.326;2023-01-19T10:24:38;8.60;70.80
15997;DHT22;8103;51.340;12.326;2023-01-19T10:27:20;9.00;69.10
15997;DHT22;8103;51.340;12.326;2023-01-19T10:29:52;9.40;67.40
15997;DHT22;8103;51.340;12.326;2023-01-19T10:32:24;9.50;65.80
15997;DHT22;8103;51.340;12.326;2023-01-19T10:34:53;9.10;65.60
15997;DHT22;8103;51.340;12.326;2023-01-19T10:37:31;7.70;68.80
15997;DHT22;8103;51.340;12.326;2023-01-19T10:42:36;4.70;81.30
15997;DHT22;8103;51.340;12.326;2023-01-19T10:45:18;3.70;86.30
15997;DHT22;8103;51.340;12.326;2023-01-19T10:47:47;2.90;91.10
15997;DHT22;8103;51.340;12.326;2023-01-19T10:50:28;2.40;93.60
15997;DHT22;8103;51.340;12.326;2023-01-19T10:53:01;2.00;95.60
15997;DHT22;8103;51.340;12.326;2023-01-19T10:55:40;1.70;97.40
15997;DHT22;8103;51.340;12.326;2023-01-19T10:58:28;1.50;98.80
15997;DHT22;8103;51.340;12.326;2023-01-19T11:01:15;1.30;99.90
15997;DHT22;8103;51.340;12.326;2023-01-19T11:03:49;1.20;99.90
15997;DHT22;8103;51.340;12.326;2023-01-19T11:06:22;1.20;99.90
15997;DHT22;8103;51.340;12.326;2023-01-19T11:09:09;1.10;99.90
15997;DHT22;8103;51.340;12.326;2023-01-19T11:11:50;1.20;99.90
15997;DHT22;8103;51.340;12.326;2023-01-19T11:14:23;1.20;99.90
15997;DHT22;8103;51.340;12.326;2023-01-19T11:16:55;1.20;99.90
15997;DHT22;8103;51.340;12.326;2023-01-19T11:19:27;1.20;99.90
15997;DHT22;8103;51.340;12.326;2023-01-19T11:22:15;1.20;99.90
15997;DHT22;8103;51.340;12.326;2023-01-19T11:24:48;1.20;99.90
15997;DHT22;8103;51.340;12.326;2023-01-19T11:27:19;1.20;99.90
15997;DHT22;8103;51.340;12.326;2023-01-19T11:29:49;1.30;99.90
15997;DHT22;8103;51.340;12.326;2023-01-19T11:32:38;1.30;99.90
15997;DHT22;8103;51.340;12.326;2023-01-19T11:35:31;1.30;99.90
15997;DHT22;8103;51.340;12.326;2023-01-19T11:38:24;1.30;99.90
15997;DHT22;8103;51.340;12.326;2023-01-19T11:40:57;1.30;99.90
15997;DHT22;8103;51.340;12.326;2023-01-19T11:43:29;1.40;99.90
15997;DHT22;8103;51.340;12.326;2023-01-19T11:46:14;1.40;99.90
15997;DHT22;8103;51.340;12.326;2023-01-19T11:48:51;1.40;99.90
15997;DHT22;8103;51.340;12.326;2023-01-19T11:51:50;1.40;99.90
15997;DHT22;8103;51.340;12.326;2023-01-19T11:54:25;1.40;99.90
15997;DHT22;8103;51.340;12.326;2023-01-19T11:56:59;1.40;99.90
15997;DHT22;8103;51.340;12.326;2023-01-19T11:59:28;1.40;99.90
15997;DHT22;8103;51.340;12.326;2023-01-19T12:01:58;1.50;99.90
15997;DHT22;8103;51.340;12.326;2023-01-19T12:04:31;1.50;99.90
15997;DHT22;8103;51.340;12.326;2023-01-19T12:07:07;1.50;99.90
15997;DHT22;8103;51.340;12.326;2023-01-19T12:09:50;1.50;99.90
15997;DHT22;8103;51.340;12.326;2023-01-19T12:12:28;1.60;99.90
15997;DHT22;8103;51.340;12.326;2023-01-19T12:15:07;1.50;99.90
15997;DHT22;8103;51.340;12.326;2023-01-19T12:17:55;1.60;99.90
15997;DHT22;8103;51.340;12.326;2023-01-19T12:23:07;1.60;99.90
15997;DHT22;8103;51.340;12.326;2023-01-19T12:26:15;1.70;99.90
15997;DHT22;8103;51.340;12.326;2023-01-19T12:29:12;1.70;99.90
15997;DHT22;8103;51.340;12.326;2023-01-19T12:31:44;1.70;99.90
15997;DHT22;8103;51.340;12.326;2023-01-19T12:34:27;1.70;99.90
15997;DHT22;8103;51.340;12.326;2023-01-19T12:37:05;1.70;99.90
15997;DHT22;8103;51.340;12.326;2023-01-19T12:39:53;1.70;99.90
15997;DHT22;8103;51.340;12.326;2023-01-19T12:42:25;1.80;99.90
15997;DHT22;8103;51.340;12.326;2023-01-19T12:45:28;1.80;99.90
15997;DHT22;8103;51.340;12.326;2023-01-19T12:47:59;1.80;99.90
15997;DHT22;8103;51.340;12.326;2023-01-19T12:50:35;1.90;99.90
15997;DHT22;8103;51.340;12.326;2023-01-19T12:53:15;2.00;99.90
15997;DHT22;8103;51.340;12.326;2023-01-19T12:55:44;2.00;99.90
15997;DHT22;8103;51.340;12.326;2023-01-19T12:58:15;2.00;99.90
15997;DHT22;8103;51.340;12.326;2023-01-19T13:00:48;2.00;99.90
15997;DHT22;8103;51.340;12.326;2023-01-19T13:05:59;2.20;99.90
15997;DHT22;8103;51.340;12.326;2023-01-19T13:11:24;2.80;99.90
15997;DHT22;8103;51.340;12.326;2023-01-19T13:21:37;3.40;99.50
15997;DHT22;8103;51.340;12.326;2023-01-19T13:24:20;3.40;99.50
15997;DHT22;8103;51.340;12.326;2023-01-19T13:29:36;3.20;99.90
15997;DHT22;8103;51.340;12.326;2023-01-19T13:32:16;3.10;99.90
15997;DHT22;8103;51.340;12.326;2023-01-19T13:34:53;3.00;99.90
15997;DHT22;8103;51.340;12.326;2023-01-19T13:37:35;2.80;99.90
15997;DHT22;8103;51.340;12.326;2023-01-19T13:40:19;2.60;99.90
15997;DHT22;8103;51.340;12.326;2023-01-19T13:42:52;2.70;99.90
15997;DHT22;8103;51.340;12.326;2023-01-19T13:45:33;2.70;99.90
15997;DHT22;8103;51.340;12.326;2023-01-19T13:48:10;2.60;99.90
15997;DHT22;8103;51.340;12.326;2023-01-19T13:50:55;2.50;99.90
15997;DHT22;8103;51.340;12.326;2023-01-19T13:53:56;2.40;99.90
15997;DHT22;8103;51.340;12.326;2023-01-19T13:56:26;2.40;99.90
15997;DHT22;8103;51.340;12.326;2023-01-19T13:58:58;2.30;99.90
15997;DHT22;8103;51.340;12.326;2023-01-19T14:01:27;2.30;99.90
15997;DHT22;8103;51.340;12.326;2023-01-19T14:03:58;2.20;99.90
15997;DHT22;8103;51.340;12.326;2023-01-19T14:06:34;2.20;99.90
15997;DHT22;8103;51.340;12.326;2023-01-19T14:09:16;2.20;99.90
15997;DHT22;8103;51.340;12.326;2023-01-19T14:12:08;2.20;99.90
15997;DHT22;8103;51.340;12.326;2023-01-19T14:14:39;2.20;99.90
15997;DHT22;8103;51.340;12.326;2023-01-19T14:17:21;2.20;99.90
15997;DHT22;8103;51.340;12.326;2023-01-19T14:19:57;2.10;99.90
15997;DHT22;8103;51.340;12.326;2023-01-19T14:22:43;2.10;99.90
15997;DHT22;8103;51.340;12.326;2023-01-19T14:25:28;2.10;99.90
15997;DHT22;8103;51.340;12.326;2023-01-19T14:28:28;2.10;99.90
15997;DHT22;8103;51.340;12.326;2023-01-19T14:31:03;2.10;99.90
15997;DHT22;8103;51.340;12.326;2023-01-19T14:33:45;2.10;99.90
15997;DHT22;8103;51.340;12.326;2023-01-19T14:38:44;2.20;99.90
15997;DHT22;8103;51.340;12.326;2023-01-19T14:41:37;2.10;99.90
15997;DHT22;8103;51.340;12.326;2023-01-19T14:44:31;2.10;99.90
15997;DHT22;8103;51.340;12.326;2023-01-19T14:47:01;2.10;99.90
15997;DHT22;8103;51.340;12.326;2023-01-19T14:49:34;2.00;99.90
15997;DHT22;8103;51.340;12.326;2023-01-19T14:52:19;2.00;99.90
15997;DHT22;8103;51.340;12.326;2023-01-19T14:54:50;2.00;99.90
15997;DHT22;8103;51.340;12.326;2023-01-19T14:57:22;2.00;99.90
15997;DHT22;8103;51.340;12.326;2023-01-19T14:59:49;2.00;99.90
15997;DHT22;8103;51.340;12.326;2023-01-19T15:02:18;2.00;99.90
15997;DHT22;8103;51.340;12.326;2023-01-19T15:04:45;2.00;99.90
15997;DHT22;8103;51.340;12.326;2023-01-19T15:07:18;2.00;99.90
15997;DHT22;8103;51.340;12.326;2023-01-19T15:09:46;2.00;99.90
15997;DHT22;8103;51.340;12.326;2023-01-19T15:12:15;2.00;99.90
15997;DHT22;8103;51.340;12.326;2023-01-19T15:14:44;2.00;99.90
15997;DHT22;8103;51.340;12.326;2023-01-19T15:17:17;2.00;99.90
15997;DHT22;8103;51.340;12.326;2023-01-19T15:19:54;2.00;99.90
15997;DHT22;8103;51.340;12.326;2023-01-19T15:22:24;2.00;99.90
15997;DHT22;8103;51.340;12.326;2023-01-19T15:24:53;2.00;99.90
15997;DHT22;8103;51.340;12.326;2023-01-19T15:27:25;2.00;99.90
15997;DHT22;8103;51.340;12.326;2023-01-19T15:29:53;1.90;99.90
15997;DHT22;8103;51.340;12.326;2023-01-19T15:32:20;1.90;99.90
15997;DHT22;8103;51.340;12.326;2023-01-19T15:34:47;1.90;99.90
15997;DHT22;8103;51.340;12.326;2023-01-19T15:37:14;1.80;99.90
15997;DHT22;8103;51.340;12.326;2023-01-19T15:39:41;1.80;99.90
15997;DHT22;8103;51.340;12.326;2023-01-19T15:42:16;1.80;99.90
15997;DHT22;8103;51.340;12.326;2023-01-19T15:44:43;1.80;99.90
15997;DHT22;8103;51.340;12.326;2023-01-19T15:47:11;1.80;99.90
15997;DHT22;8103;51.340;12.326;2023-01-19T15:49:38;1.80;99.90
15997;DHT22;8103;51.340;12.326;2023-01-19T15:52:05;1.80;99.90
15997;DHT22;8103;51.340;12.326;2023-01-19T15:54:32;1.80;99.90
15997;DHT22;8103;51.340;12.326;2023-01-19T15:56:59;1.70;99.90
15997;DHT22;8103;51.340;12.326;2023-01-19T15:59:25;1.70;99.90
15997;DHT22;8103;51.340;12.326;2023-01-19T16:01:52;1.70;99.90
15997;DHT22;8103;51.340;12.326;2023-01-19T16:04:19;1.70;99.90
15997;DHT22;8103;51.340;12.326;2023-01-19T16:06:46;1.70;99.90
15997;DHT22;8103;51.340;12.326;2023-01-19T16:09:13;1.70;99.90
15997;DHT22;8103;51.340;12.326;2023-01-19T16:11:43;1.70;99.90
15997;DHT22;8103;51.340;12.326;2023-01-19T16:14:11;1.70;99.90
15997;DHT22;8103;51.340;12.326;2023-01-19T16:16:38;1.60;99.90
15997;DHT22;8103;51.340;12.326;2023-01-19T16:19:05;1.60;99.90
15997;DHT22;8103;51.340;12.326;2023-01-19T16:21:32;1.60;99.90
15997;DHT22;8103;51.340;12.326;2023-01-19T16:24:00;1.60;99.90
15997;DHT22;8103;51.340;12.326;2023-01-19T16:26:35;1.60;99.90
15997;DHT22;8103;51.340;12.326;2023-01-19T16:29:04;1.70;99.90
15997;DHT22;8103;51.340;12.326;2023-01-19T16:31:41;1.70;99.90
15997;DHT22;8103;51.340;12.326;2023-01-19T16:34:18;1.70;99.90
15997;DHT22;8103;51.340;12.326;2023-01-19T16:36:45;1.70;99.90
15997;DHT22;8103;51.340;12.326;2023-01-19T16:39:16;1.70;99.90
15997;DHT22;8103;51.340;12.326;2023-01-19T16:41:47;1.70;99.90
15997;DHT22;8103;51.340;12.326;2023-01-19T16:44:15;1.60;99.90